Avalon Airport

Airport
ICAO code: 
YMAV
IATA Code: 
AVV
Summary
ICAO Region: 
APAC
Territory: 
Location: 
, Victoria
Serving: 
Avalon
Elevation: 
35 ft
Coordinates: 
Aerial View: 
38° 2' 21.984" S, 144° 28' 9.984" E
Metar
Observation
YMAV 060030Z AUTO 36015KT 9999 // NCD 23/11 Q1012 RF00.0/000.0
Station
Avalon, Avalon Airport
Date/Time
2021-12-06 00:30:00
Wind direction
360°
Wind speed
15 kts
Lowest cloud amount
no clouds detected
Temperature
23°C
Dew point
11°C
Humidity
46%
QNH
1012 hPa
Weather condition
n/a

Runways

Designator Length Width Surface Rops
18/36 3048 45 ASP Yes/Yes
Airport map: 
Aerial View: 

SKYbrary Partners:

Safety knowledge contributed by: